Time;durP1;ratioP1;P1;durP2;ratioP2;P2;SDS_P1;SDS_P2;PMS_P1;PMS_P2;Temp;Humidity;BMP_temperature;BMP_pressure;BME280_temperature;BME280_humidity;BME280_pressure;Samples;Min_cycle;Max_cycle;Signal;HPM_P1;HPM_P2
2023/06/13 00:02:02;;;;;;;85.85;81.57;;;;;;;;;;5034006;28;20041;-64
2023/06/13 00:04:30;;;;;;;86.25;81.93;;;;;;;;;;5033392;28;20396;-62
2023/06/13 00:06:57;;;;;;;73.57;69.88;;;;;;;;;;5032719;28;20036;-54
2023/06/13 00:09:23;;;;;;;76.10;72.30;;;;;;;;;;5033156;28;20325;-62
2023/06/13 00:11:51;;;;;;;74.82;70.97;;;;;;;;;;5036253;28;20183;-63
2023/06/13 00:14:18;;;;;;;67.85;64.30;;;;;;;;;;5033262;28;20045;-55
2023/06/13 00:16:47;;;;;;;67.40;63.97;;;;;;;;;;5032236;28;20044;-55
2023/06/13 00:19:13;;;;;;;69.22;65.72;;;;;;;;;;5034287;28;20106;-57
2023/06/13 00:21:39;;;;;;;64.78;61.47;;;;;;;;;;5034679;28;20446;-57
2023/06/13 00:24:04;;;;;;;65.93;62.58;;;;;;;;;;5033359;28;20048;-60
2023/06/13 00:26:30;;;;;;;62.88;59.65;;;;;;;;;;5033167;28;20051;-62
2023/06/13 00:28:55;;;;;;;68.22;64.80;;;;;;;;;;5033742;28;20067;-62
2023/06/13 00:31:21;;;;;;;69.18;65.60;;;;;;;;;;5033069;28;20080;-63
2023/06/13 00:33:50;;;;;;;64.85;61.55;;;;;;;;;;5031144;28;20029;-55
2023/06/13 00:36:20;;;;;;;62.78;59.53;;;;;;;;;;5034921;28;20550;-56
2023/06/13 00:38:49;;;;;;;61.40;58.30;;;;;;;;;;5033728;28;20032;-56
2023/06/13 00:41:14;;;;;;;60.08;56.88;;;;;;;;;;5033673;28;20416;-56
2023/06/13 00:43:40;;;;;;;64.38;60.70;;;;;;;;;;5035009;28;20025;-56
2023/06/13 00:46:05;;;;;;;61.38;58.28;;;;;;;;;;5033959;28;20129;-56
2023/06/13 00:48:32;;;;;;;62.03;58.83;;;;;;;;;;5034028;28;20048;-56
2023/06/13 00:50:59;;;;;;;57.47;54.58;;;;;;;;;;5031732;28;20095;-56
2023/06/13 00:53:29;;;;;;;59.80;56.75;;;;;;;;;;5034862;28;20037;-63
2023/06/13 00:55:55;;;;;;;59.20;56.20;;;;;;;;;;5028625;28;20044;-62
2023/06/13 00:58:22;;;;;;;57.63;54.72;;;;;;;;;;5033837;28;20033;-63
2023/06/13 01:00:49;;;;;;;52.90;50.22;;;;;;;;;;5033327;28;20038;-63
2023/06/13 01:03:15;;;;;;;51.03;48.42;;;;;;;;;;5037175;28;20064;-63
2023/06/13 01:05:45;;;;;;;51.72;49.10;;;;;;;;;;5032191;28;20037;-62
2023/06/13 01:08:23;;;;;;;47.90;45.47;;;;;;;;;;5036871;28;20045;-64
2023/06/13 01:11:12;;;;;;;54.05;51.17;;;;;;;;;;5035944;28;20618;-63
2023/06/13 01:13:53;;;;;;;50.75;47.78;;;;;;;;;;5032627;28;20132;-63
2023/06/13 01:16:33;;;;;;;45.58;43.17;;;;;;;;;;5036383;28;20025;-63
2023/06/13 01:19:00;;;;;;;44.70;42.43;;;;;;;;;;5036762;28;20045;-62
2023/06/13 01:21:26;;;;;;;47.88;45.45;;;;;;;;;;5038701;28;20119;-63
2023/06/13 01:24:04;;;;;;;49.20;46.70;;;;;;;;;;5036047;28;20110;-62
2023/06/13 01:26:50;;;;;;;47.72;45.28;;;;;;;;;;5038617;28;20495;-63
2023/06/13 01:29:17;;;;;;;49.45;46.95;;;;;;;;;;5037781;28;20480;-55
2023/06/13 01:31:46;;;;;;;45.40;43.08;;;;;;;;;;5037565;28;20103;-62
2023/06/13 01:34:12;;;;;;;48.13;45.60;;;;;;;;;;5037390;28;20110;-63
2023/06/13 01:36:38;;;;;;;48.95;46.35;;;;;;;;;;5035761;28;20489;-55
2023/06/13 01:39:03;;;;;;;49.00;46.42;;;;;;;;;;5036117;28;20033;-53
2023/06/13 01:41:29;;;;;;;50.38;47.83;;;;;;;;;;5037237;28;20375;-54
2023/06/13 01:43:54;;;;;;;54.95;52.17;;;;;;;;;;5040426;28;20501;-54
2023/06/13 01:46:28;;;;;;;59.20;56.20;;;;;;;;;;5034657;28;20363;-62
2023/06/13 01:49:28;;;;;;;54.42;51.67;;;;;;;;;;5033087;28;20107;-54
2023/06/13 01:52:21;;;;;;;50.05;47.45;;;;;;;;;;5039527;28;20047;-55
2023/06/13 01:54:56;;;;;;;49.20;46.60;;;;;;;;;;5019839;28;20048;-54
2023/06/13 01:57:26;;;;;;;48.15;45.70;;;;;;;;;;5034540;28;20745;-55
2023/06/13 01:59:55;;;;;;;48.85;46.38;;;;;;;;;;5033635;28;20044;-55
2023/06/13 02:02:21;;;;;;;49.38;46.80;;;;;;;;;;5035792;28;20048;-54
2023/06/13 02:04:48;;;;;;;49.58;46.92;;;;;;;;;;5036732;28;20021;-55
2023/06/13 02:07:14;;;;;;;47.78;45.33;;;;;;;;;;5035914;28;20029;-52
2023/06/13 02:09:39;;;;;;;44.92;42.42;;;;;;;;;;5037389;28;20449;-63
2023/06/13 02:12:06;;;;;;;49.05;46.55;;;;;;;;;;5034926;28;20037;-62
2023/06/13 02:14:32;;;;;;;47.80;45.38;;;;;;;;;;5035823;28;20071;-54
2023/06/13 02:17:00;;;;;;;47.20;44.75;;;;;;;;;;5033941;28;20455;-62
2023/06/13 02:19:26;;;;;;;43.33;41.10;;;;;;;;;;5032530;28;20196;-63
2023/06/13 02:21:52;;;;;;;45.80;43.47;;;;;;;;;;5036417;28;20411;-62
2023/06/13 02:24:18;;;;;;;49.50;46.97;;;;;;;;;;5038106;28;20463;-61
2023/06/13 02:26:44;;;;;;;49.85;47.20;;;;;;;;;;5036180;28;20124;-63
2023/06/13 02:29:09;;;;;;;35.88;34.03;;;;;;;;;;5034666;28;20645;-63
2023/06/13 02:31:41;;;;;;;41.58;39.45;;;;;;;;;;5031329;28;20061;-62
2023/06/13 02:34:06;;;;;;;34.75;32.92;;;;;;;;;;5035756;28;20045;-62
2023/06/13 02:36:32;;;;;;;42.63;40.42;;;;;;;;;;5036128;28;20034;-62
2023/06/13 02:38:58;;;;;;;40.95;38.80;;;;;;;;;;5035052;28;20487;-62
2023/06/13 02:41:23;;;;;;;40.05;37.95;;;;;;;;;;5036140;28;20507;-63
2023/06/13 02:43:48;;;;;;;38.08;36.08;;;;;;;;;;5033607;28;20037;-62
2023/06/13 02:46:15;;;;;;;33.22;31.48;;;;;;;;;;5036724;28;20383;-62
2023/06/13 02:48:40;;;;;;;35.67;33.85;;;;;;;;;;5036641;28;20033;-63
2023/06/13 02:51:07;;;;;;;33.78;32.00;;;;;;;;;;5035429;28;20623;-63
2023/06/13 02:53:33;;;;;;;31.17;29.48;;;;;;;;;;5039331;28;20198;-62
2023/06/13 02:55:58;;;;;;;26.33;24.92;;;;;;;;;;5033927;28;20343;-62
2023/06/13 02:58:24;;;;;;;30.88;29.23;;;;;;;;;;5033704;28;20289;-61
2023/06/13 03:00:49;;;;;;;24.45;23.13;;;;;;;;;;5035937;28;20032;-62
2023/06/13 03:03:18;;;;;;;20.85;19.60;;;;;;;;;;5037627;28;20025;-63
2023/06/13 03:05:47;;;;;;;22.58;21.35;;;;;;;;;;5032155;28;20351;-62
2023/06/13 03:08:18;;;;;;;24.85;23.52;;;;;;;;;;5033753;28;20047;-62
2023/06/13 03:10:48;;;;;;;23.33;22.02;;;;;;;;;;5034326;28;20363;-63
2023/06/13 03:13:15;;;;;;;22.42;21.20;;;;;;;;;;5037404;28;20056;-62
2023/06/13 03:15:41;;;;;;;24.08;22.77;;;;;;;;;;5036043;28;20038;-62
2023/06/13 03:18:07;;;;;;;20.63;19.52;;;;;;;;;;5035525;28;20444;-54
2023/06/13 03:20:33;;;;;;;17.60;16.40;;;;;;;;;;5038766;28;20091;-53
2023/06/13 03:22:58;;;;;;;16.80;15.77;;;;;;;;;;5035841;28;20091;-61
2023/06/13 03:25:24;;;;;;;16.65;15.73;;;;;;;;;;5032147;28;20488;-62
2023/06/13 03:27:49;;;;;;;23.35;22.05;;;;;;;;;;5033416;28;20459;-62
2023/06/13 03:30:16;;;;;;;20.70;19.52;;;;;;;;;;5036069;28;20045;-62
2023/06/13 03:32:41;;;;;;;17.15;16.20;;;;;;;;;;5036601;28;20041;-62
2023/06/13 03:35:06;;;;;;;16.55;15.52;;;;;;;;;;5033373;28;20526;-61
2023/06/13 03:37:32;;;;;;;16.67;15.70;;;;;;;;;;5031557;28;20029;-62
2023/06/13 03:39:57;;;;;;;23.50;22.20;;;;;;;;;;5033674;28;20124;-55
2023/06/13 03:42:23;;;;;;;20.48;19.27;;;;;;;;;;5032037;28;20041;-55
2023/06/13 03:44:48;;;;;;;19.73;18.63;;;;;;;;;;5034049;28;20025;-61
2023/06/13 03:47:14;;;;;;;21.58;20.38;;;;;;;;;;5041161;28;20537;-54
2023/06/13 03:49:40;;;;;;;17.00;16.05;;;;;;;;;;5033274;28;20072;-54
2023/06/13 03:52:05;;;;;;;17.83;16.83;;;;;;;;;;5032687;28;20119;-56
2023/06/13 03:54:31;;;;;;;17.55;16.50;;;;;;;;;;5035334;28;20740;-55
2023/06/13 03:56:56;;;;;;;17.35;16.25;;;;;;;;;;5032117;28;20029;-55
2023/06/13 03:59:21;;;;;;;15.77;14.88;;;;;;;;;;5030855;28;20041;-56
2023/06/13 04:01:47;;;;;;;17.42;16.17;;;;;;;;;;5034336;28;20131;-55
2023/06/13 04:04:12;;;;;;;15.18;14.27;;;;;;;;;;5034360;28;20394;-55
2023/06/13 04:06:38;;;;;;;16.05;15.05;;;;;;;;;;5034326;28;20045;-54
2023/06/13 04:09:06;;;;;;;15.68;14.77;;;;;;;;;;5033149;28;20017;-54
2023/06/13 04:11:35;;;;;;;14.93;14.05;;;;;;;;;;5031454;28;20537;-55
2023/06/13 04:14:01;;;;;;;15.13;14.25;;;;;;;;;;5034470;28;20045;-53
2023/06/13 04:16:27;;;;;;;15.35;14.25;;;;;;;;;;5032436;28;20108;-63
2023/06/13 04:18:54;;;;;;;14.32;13.52;;;;;;;;;;5036543;28;20097;-63
2023/06/13 04:21:21;;;;;;;14.00;13.20;;;;;;;;;;5035601;28;20033;-62
2023/06/13 04:23:48;;;;;;;14.27;13.38;;;;;;;;;;5033288;28;20029;-62
2023/06/13 04:26:17;;;;;;;15.20;14.30;;;;;;;;;;5035967;28;20421;-62
2023/06/13 04:28:43;;;;;;;13.38;12.57;;;;;;;;;;5033634;28;20391;-63
2023/06/13 04:31:10;;;;;;;15.40;14.50;;;;;;;;;;5031583;28;20041;-62
2023/06/13 04:33:38;;;;;;;13.75;12.95;;;;;;;;;;5035482;28;20402;-62
2023/06/13 04:36:05;;;;;;;14.88;13.98;;;;;;;;;;5037940;28;20032;-63
2023/06/13 04:38:34;;;;;;;11.98;11.27;;;;;;;;;;5036330;28;20037;-62
2023/06/13 04:41:00;;;;;;;14.65;13.68;;;;;;;;;;5031882;28;20061;-62
2023/06/13 04:43:28;;;;;;;13.55;12.75;;;;;;;;;;5036830;28;20037;-62
2023/06/13 04:45:55;;;;;;;12.93;12.13;;;;;;;;;;5035119;28;20037;-62
2023/06/13 04:48:25;;;;;;;14.43;13.60;;;;;;;;;;5035406;28;20370;-61
2023/06/13 04:50:51;;;;;;;15.48;14.57;;;;;;;;;;5032739;28;20033;-62
2023/06/13 04:53:21;;;;;;;13.60;12.80;;;;;;;;;;5034294;28;20034;-62
2023/06/13 04:55:48;;;;;;;13.90;13.00;;;;;;;;;;5035246;28;20032;-56
2023/06/13 04:58:14;;;;;;;16.65;15.65;;;;;;;;;;5029586;28;20048;-53
2023/06/13 05:00:39;;;;;;;14.80;13.90;;;;;;;;;;5031727;28;20025;-54
2023/06/13 05:03:06;;;;;;;15.95;15.05;;;;;;;;;;5033772;28;20112;-52
2023/06/13 05:05:32;;;;;;;15.98;14.98;;;;;;;;;;5035194;28;20038;-54
2023/06/13 05:07:59;;;;;;;13.98;13.18;;;;;;;;;;5035064;28;20033;-53
2023/06/13 05:10:28;;;;;;;16.38;15.38;;;;;;;;;;5034174;28;20343;-53
2023/06/13 05:12:54;;;;;;;18.77;17.67;;;;;;;;;;5034990;28;20407;-53
2023/06/13 05:15:20;;;;;;;22.23;21.02;;;;;;;;;;5036195;28;20029;-52
2023/06/13 05:17:46;;;;;;;29.63;28.02;;;;;;;;;;5033933;28;20038;-62
2023/06/13 05:20:12;;;;;;;23.23;21.98;;;;;;;;;;5032227;28;20370;-62
2023/06/13 05:22:39;;;;;;;30.25;28.63;;;;;;;;;;5034514;28;20590;-64
2023/06/13 05:25:09;;;;;;;26.00;24.60;;;;;;;;;;5036109;28;20029;-62
2023/06/13 05:27:35;;;;;;;35.15;33.25;;;;;;;;;;5018086;28;20359;-63
2023/06/13 05:30:01;;;;;;;44.47;42.15;;;;;;;;;;5036116;28;20120;-63
2023/06/13 05:32:26;;;;;;;46.60;44.25;;;;;;;;;;5032602;28;20196;-54
2023/06/13 05:34:52;;;;;;;51.08;48.47;;;;;;;;;;5035874;28;20063;-62
2023/06/13 05:37:18;;;;;;;58.58;55.33;;;;;;;;;;5033870;28;20037;-53
2023/06/13 05:39:44;;;;;;;51.45;48.80;;;;;;;;;;5033525;28;20487;-63
2023/06/13 05:42:10;;;;;;;51.22;48.58;;;;;;;;;;5031570;28;20076;-63
2023/06/13 05:44:35;;;;;;;66.80;63.42;;;;;;;;;;5035206;28;20065;-64
2023/06/13 05:47:01;;;;;;;69.95;66.45;;;;;;;;;;5032461;28;20064;-64
2023/06/13 05:49:27;;;;;;;58.25;55.25;;;;;;;;;;5030617;28;20041;-63
2023/06/13 05:51:53;;;;;;;66.60;63.22;;;;;;;;;;5034949;28;20032;-55
2023/06/13 05:54:19;;;;;;;87.53;83.15;;;;;;;;;;5034710;28;20072;-53
2023/06/13 05:56:44;;;;;;;92.30;87.70;;;;;;;;;;5032499;28;20131;-65
2023/06/13 05:59:09;;;;;;;101.75;96.70;;;;;;;;;;5037537;28;20141;-64
2023/06/13 06:01:36;;;;;;;101.75;96.68;;;;;;;;;;5035389;28;20068;-63
2023/06/13 06:04:01;;;;;;;110.30;104.53;;;;;;;;;;5036835;28;20025;-63
2023/06/13 06:06:26;;;;;;;115.85;110.10;;;;;;;;;;5037490;28;20043;-62
2023/06/13 06:08:52;;;;;;;106.20;100.95;;;;;;;;;;5038030;28;20029;-64
2023/06/13 06:11:18;;;;;;;110.43;104.95;;;;;;;;;;5037395;28;20356;-65
2023/06/13 06:13:44;;;;;;;113.25;107.28;;;;;;;;;;5037016;28;20112;-63
2023/06/13 06:16:10;;;;;;;115.97;109.93;;;;;;;;;;5038878;28;20144;-64
2023/06/13 06:18:36;;;;;;;102.28;97.18;;;;;;;;;;5037039;28;20048;-65
2023/06/13 06:21:02;;;;;;;108.20;102.85;;;;;;;;;;5035610;28;20021;-63
2023/06/13 06:23:27;;;;;;;108.65;103.28;;;;;;;;;;5038921;28;20363;-53
2023/06/13 06:25:53;;;;;;;104.90;99.70;;;;;;;;;;5040857;28;20124;-54
2023/06/13 06:28:18;;;;;;;118.40;112.30;;;;;;;;;;5038546;28;20052;-54
2023/06/13 06:30:43;;;;;;;115.85;110.13;;;;;;;;;;5037239;28;20333;-54
2023/06/13 06:33:09;;;;;;;100.50;95.53;;;;;;;;;;5037373;28;20069;-53
2023/06/13 06:35:35;;;;;;;91.28;86.75;;;;;;;;;;5038523;28;20075;-54
2023/06/13 06:38:00;;;;;;;113.20;107.60;;;;;;;;;;5041081;28;20037;-54
2023/06/13 06:40:25;;;;;;;107.57;102.28;;;;;;;;;;5038729;28;20021;-53
2023/06/13 06:42:51;;;;;;;90.13;85.65;;;;;;;;;;5039408;28;20033;-53
2023/06/13 06:45:16;;;;;;;66.72;63.40;;;;;;;;;;5040279;28;20052;-55
2023/06/13 06:47:42;;;;;;;51.45;48.83;;;;;;;;;;5036963;28;20036;-53
2023/06/13 06:50:07;;;;;;;51.85;49.20;;;;;;;;;;5035941;28;20067;-54
2023/06/13 06:52:32;;;;;;;97.90;92.78;;;;;;;;;;5039577;28;20033;-52
2023/06/13 06:54:58;;;;;;;48.92;46.38;;;;;;;;;;5035446;28;20105;-54
2023/06/13 06:57:23;;;;;;;57.15;54.28;;;;;;;;;;5037817;28;20029;-54
2023/06/13 06:59:49;;;;;;;56.35;53.55;;;;;;;;;;5032470;28;20030;-63
2023/06/13 07:02:16;;;;;;;86.45;82.15;;;;;;;;;;5033403;28;20190;-64
2023/06/13 07:04:41;;;;;;;44.55;42.25;;;;;;;;;;5035062;28;20129;-64
2023/06/13 07:07:06;;;;;;;60.78;57.72;;;;;;;;;;5035664;28;20562;-64
2023/06/13 07:09:32;;;;;;;35.60;33.75;;;;;;;;;;5033759;28;20031;-64
2023/06/13 07:11:57;;;;;;;38.08;36.08;;;;;;;;;;5035127;28;20045;-55
2023/06/13 07:14:26;;;;;;;40.97;38.85;;;;;;;;;;5038169;28;20458;-53
2023/06/13 07:16:54;;;;;;;38.53;36.53;;;;;;;;;;5035179;28;20060;-54
2023/06/13 07:19:20;;;;;;;41.55;39.40;;;;;;;;;;5036146;28;20041;-63
2023/06/13 07:21:45;;;;;;;43.38;41.17;;;;;;;;;;5034078;28;20060;-54
2023/06/13 07:24:11;;;;;;;39.92;37.83;;;;;;;;;;5036063;28;20044;-54
2023/06/13 07:26:36;;;;;;;40.75;38.65;;;;;;;;;;5035008;28;20021;-51
2023/06/13 07:29:02;;;;;;;40.15;38.10;;;;;;;;;;5036670;28;20480;-56
2023/06/13 07:31:28;;;;;;;47.17;44.58;;;;;;;;;;5033528;28;20128;-64
2023/06/13 07:33:53;;;;;;;40.42;38.35;;;;;;;;;;5036605;28;20090;-64
2023/06/13 07:36:19;;;;;;;39.30;37.22;;;;;;;;;;5036638;28;20037;-54
2023/06/13 07:38:44;;;;;;;43.03;40.83;;;;;;;;;;5034801;28;20129;-55
2023/06/13 07:41:10;;;;;;;48.60;46.13;;;;;;;;;;5035617;28;20045;-65
2023/06/13 07:43:36;;;;;;;57.55;54.67;;;;;;;;;;5037211;28;20474;-64
2023/06/13 07:46:01;;;;;;;53.05;50.30;;;;;;;;;;5036126;28;20036;-54
2023/06/13 07:48:26;;;;;;;41.10;39.00;;;;;;;;;;5035378;28;20515;-55
2023/06/13 07:50:52;;;;;;;59.35;56.15;;;;;;;;;;5036587;28;20062;-52
2023/06/13 07:53:17;;;;;;;70.35;66.82;;;;;;;;;;5036556;28;20120;-64
2023/06/13 07:55:46;;;;;;;72.97;69.38;;;;;;;;;;5035079;28;20091;-55
2023/06/13 07:58:13;;;;;;;66.22;62.88;;;;;;;;;;5036438;28;20533;-60
2023/06/13 08:00:38;;;;;;;71.00;67.45;;;;;;;;;;5034765;28;20106;-56
2023/06/13 08:03:03;;;;;;;50.80;48.20;;;;;;;;;;5033009;28;20118;-55
2023/06/13 08:05:29;;;;;;;92.40;87.72;;;;;;;;;;5036429;28;20047;-55
2023/06/13 08:07:55;;;;;;;115.82;110.03;;;;;;;;;;5034267;28;20033;-65
2023/06/13 08:10:21;;;;;;;100.93;95.97;;;;;;;;;;5035416;28;20098;-63
2023/06/13 08:12:46;;;;;;;164.80;156.55;;;;;;;;;;5037265;28;20476;-64
2023/06/13 08:15:12;;;;;;;202.40;192.50;;;;;;;;;;5034317;28;20106;-63
2023/06/13 08:17:41;;;;;;;210.55;200.38;;;;;;;;;;5036110;28;20037;-64
2023/06/13 08:20:08;;;;;;;163.80;155.77;;;;;;;;;;5030873;28;20087;-63
2023/06/13 08:22:33;;;;;;;134.02;127.22;;;;;;;;;;5034560;28;20051;-63
2023/06/13 08:24:59;;;;;;;143.02;136.02;;;;;;;;;;5033709;28;20042;-63
2023/06/13 08:27:24;;;;;;;218.25;207.70;;;;;;;;;;5036875;28;20603;-54
2023/06/13 08:29:51;;;;;;;147.10;139.93;;;;;;;;;;5035516;28;20123;-52
2023/06/13 08:32:16;;;;;;;171.65;163.27;;;;;;;;;;5033671;28;20029;-62
2023/06/13 08:34:42;;;;;;;201.27;191.48;;;;;;;;;;5035561;28;20497;-63
2023/06/13 08:37:07;;;;;;;233.52;222.23;;;;;;;;;;5031218;28;20041;-63
2023/06/13 08:39:32;;;;;;;189.25;180.07;;;;;;;;;;5033365;28;20041;-63
2023/06/13 08:41:58;;;;;;;250.80;238.60;;;;;;;;;;5036465;28;20115;-63
2023/06/13 08:44:25;;;;;;;224.85;214.00;;;;;;;;;;5033157;28;20043;-63
2023/06/13 08:46:51;;;;;;;206.30;196.27;;;;;;;;;;5031758;28;20033;-62
2023/06/13 08:49:16;;;;;;;243.27;231.45;;;;;;;;;;5037663;28;20041;-63
2023/06/13 08:51:45;;;;;;;240.45;228.85;;;;;;;;;;5034173;28;20383;-63
2023/06/13 08:54:12;;;;;;;253.23;240.93;;;;;;;;;;5033348;28;20045;-52
2023/06/13 08:56:42;;;;;;;225.45;214.48;;;;;;;;;;5031759;28;20689;-53
2023/06/13 08:59:10;;;;;;;228.75;217.63;;;;;;;;;;5038346;28;20428;-63
2023/06/13 09:01:39;;;;;;;260.48;247.73;;;;;;;;;;5035895;28;20076;-62
2023/06/13 09:04:07;;;;;;;242.45;230.65;;;;;;;;;;5034247;28;20044;-63
2023/06/13 09:06:33;;;;;;;144.73;137.55;;;;;;;;;;5033075;28;20033;-51
2023/06/13 09:09:00;;;;;;;230.95;219.63;;;;;;;;;;5034711;28;20462;-53
2023/06/13 09:11:28;;;;;;;196.93;187.30;;;;;;;;;;5033349;28;20037;-64
2023/06/13 09:13:55;;;;;;;77.25;73.43;;;;;;;;;;5034749;28;20041;-52
2023/06/13 09:16:21;;;;;;;47.13;44.72;;;;;;;;;;5031709;28;20029;-51
2023/06/13 09:18:49;;;;;;;28.52;27.05;;;;;;;;;;5032416;28;20041;-54
2023/06/13 09:21:17;;;;;;;25.73;24.33;;;;;;;;;;5034640;28;20049;-65
2023/06/13 09:23:42;;;;;;;25.98;24.58;;;;;;;;;;5035041;28;20030;-64
2023/06/13 09:26:09;;;;;;;22.38;21.17;;;;;;;;;;5034159;28;20489;-64
2023/06/13 09:28:42;;;;;;;25.15;23.83;;;;;;;;;;5034201;28;20021;-64
2023/06/13 09:31:08;;;;;;;22.58;21.38;;;;;;;;;;5031904;28;20021;-64
2023/06/13 09:33:37;;;;;;;24.48;23.17;;;;;;;;;;5037264;28;20115;-63
2023/06/13 09:36:05;;;;;;;28.40;26.90;;;;;;;;;;5036570;28;20032;-64
2023/06/13 09:38:34;;;;;;;23.60;22.27;;;;;;;;;;5037677;28;20038;-63
2023/06/13 09:41:02;;;;;;;22.00;20.80;;;;;;;;;;5039446;28;20370;-64
2023/06/13 09:43:28;;;;;;;19.92;18.83;;;;;;;;;;5037596;28;20294;-62
2023/06/13 09:45:53;;;;;;;30.25;28.67;;;;;;;;;;5039239;28;20040;-52
2023/06/13 09:48:19;;;;;;;23.00;21.73;;;;;;;;;;5037233;28;20029;-63
2023/06/13 09:50:45;;;;;;;37.38;35.42;;;;;;;;;;5037252;28;20068;-64
2023/06/13 09:53:10;;;;;;;23.75;22.45;;;;;;;;;;5035817;28;20046;-62
2023/06/13 09:55:36;;;;;;;20.70;19.55;;;;;;;;;;5037992;28;20041;-54
2023/06/13 09:58:03;;;;;;;25.35;24.02;;;;;;;;;;5034735;28;20037;-52
2023/06/13 10:00:29;;;;;;;27.27;25.77;;;;;;;;;;5040537;28;20041;-63
2023/06/13 10:02:55;;;;;;;35.42;33.63;;;;;;;;;;5037415;28;20689;-52
2023/06/13 10:05:21;;;;;;;24.60;23.30;;;;;;;;;;5036511;28;20049;-64
2023/06/13 10:07:47;;;;;;;26.70;25.25;;;;;;;;;;5040093;28;20040;-64
2023/06/13 10:10:13;;;;;;;54.45;51.70;;;;;;;;;;5038772;28;20037;-65
2023/06/13 10:12:45;;;;;;;36.35;34.33;;;;;;;;;;5039624;28;20041;-64
2023/06/13 10:15:17;;;;;;;59.70;56.70;;;;;;;;;;5037381;28;20057;-49
2023/06/13 10:17:45;;;;;;;48.33;45.88;;;;;;;;;;5033441;28;20033;-52
2023/06/13 10:20:14;;;;;;;55.33;52.50;;;;;;;;;;5035896;28;20132;-53
2023/06/13 10:22:40;;;;;;;48.35;45.90;;;;;;;;;;5040280;28;20040;-52
2023/06/13 10:25:11;;;;;;;50.63;48.05;;;;;;;;;;5039376;28;20045;-51
2023/06/13 10:27:40;;;;;;;28.25;26.73;;;;;;;;;;5038433;28;20021;-52
2023/06/13 10:30:20;;;;;;;31.63;29.98;;;;;;;;;;5036741;28;20132;-64
2023/06/13 10:33:10;;;;;;;;;;;;;;;;;;5037633;28;20033;-56
2023/06/13 10:36:14;;;;;;;63.35;60.13;;;;;;;;;;5036984;28;20310;-49
2023/06/13 10:39:03;;;;;;;63.72;60.42;;;;;;;;;;5038547;28;20033;-63
2023/06/13 10:41:57;;;;;;;74.00;70.30;;;;;;;;;;5039198;28;20042;-63
2023/06/13 10:44:44;;;;;;;69.53;66.00;;;;;;;;;;5037873;28;20166;-48
2023/06/13 10:47:09;;;;;;;61.03;57.97;;;;;;;;;;5037329;28;20449;-51
2023/06/13 10:49:39;;;;;;;66.47;63.03;;;;;;;;;;5038125;28;20033;-63
2023/06/13 10:52:10;;;;;;;19.90;18.80;;;;;;;;;;5039317;28;20425;-64
2023/06/13 10:54:35;;;;;;;62.13;59.00;;;;;;;;;;5037251;28;20489;-62
2023/06/13 10:57:01;;;;;;;78.93;75.00;;;;;;;;;;5037380;28;20037;-62
2023/06/13 10:59:33;;;;;;;77.32;73.50;;;;;;;;;;5037451;28;20043;-62
2023/06/13 11:01:58;;;;;;;78.68;74.75;;;;;;;;;;5037354;28;20033;-50
2023/06/13 11:04:24;;;;;;;57.78;54.83;;;;;;;;;;5036941;28;20025;-52
2023/06/13 11:06:51;;;;;;;75.50;71.78;;;;;;;;;;5038047;28;20025;-52
2023/06/13 11:09:22;;;;;;;39.20;37.13;;;;;;;;;;5035960;28;20032;-62
2023/06/13 11:11:59;;;;;;;68.30;64.82;;;;;;;;;;5036701;28;20044;-50
2023/06/13 11:14:38;;;;;;;79.53;75.55;;;;;;;;;;5033512;28;20051;-53
2023/06/13 11:17:04;;;;;;;76.55;72.75;;;;;;;;;;5034207;28;20037;-49
2023/06/13 11:19:33;;;;;;;90.00;85.55;;;;;;;;;;5034832;28;20035;-53
2023/06/13 11:21:59;;;;;;;89.95;85.47;;;;;;;;;;5033555;28;20032;-54
2023/06/13 11:24:27;;;;;;;70.75;67.25;;;;;;;;;;5035534;28;20037;-54
2023/06/13 11:26:56;;;;;;;82.32;77.93;;;;;;;;;;5037567;28;20037;-53
2023/06/13 11:29:22;;;;;;;79.97;75.97;;;;;;;;;;5033973;28;20068;-61
2023/06/13 11:31:51;;;;;;;73.40;69.78;;;;;;;;;;5034225;28;20076;-63
2023/06/13 11:34:18;;;;;;;80.03;76.03;;;;;;;;;;5021820;28;20033;-51
2023/06/13 11:36:45;;;;;;;72.22;68.63;;;;;;;;;;5034514;28;20040;-50
2023/06/13 11:39:23;;;;;;;81.47;77.40;;;;;;;;;;5030390;28;20092;-53
2023/06/13 11:41:48;;;;;;;75.10;71.38;;;;;;;;;;5034485;28;20120;-51
2023/06/13 11:44:14;;;;;;;78.55;74.65;;;;;;;;;;5034653;28;20123;-50
2023/06/13 11:46:46;;;;;;;66.13;62.83;;;;;;;;;;5032293;28;20029;-49
2023/06/13 11:49:15;;;;;;;91.97;87.40;;;;;;;;;;5034768;28;20372;-51
2023/06/13 11:51:41;;;;;;;84.10;79.95;;;;;;;;;;5034818;28;20482;-50
2023/06/13 11:54:08;;;;;;;65.25;62.00;;;;;;;;;;5036811;28;20037;-51
2023/06/13 11:56:34;;;;;;;58.97;55.97;;;;;;;;;;5039782;28;20037;-48
2023/06/13 11:59:00;;;;;;;59.70;56.67;;;;;;;;;;5033347;28;20411;-49
2023/06/13 12:01:26;;;;;;;66.57;63.00;;;;;;;;;;5034233;28;20067;-48
2023/06/13 12:03:55;;;;;;;70.32;66.72;;;;;;;;;;5032574;28;20124;-51
2023/06/13 12:06:21;;;;;;;57.08;54.17;;;;;;;;;;5035312;28;20125;-52
2023/06/13 12:08:47;;;;;;;70.40;66.90;;;;;;;;;;5032814;28;20551;-53
2023/06/13 12:11:22;;;;;;;53.80;51.10;;;;;;;;;;5033696;28;20032;-50
2023/06/13 12:13:54;;;;;;;61.42;58.35;;;;;;;;;;5031392;28;20037;-50
2023/06/13 12:16:22;;;;;;;70.25;66.75;;;;;;;;;;5031497;28;20056;-49
2023/06/13 12:18:54;;;;;;;64.65;61.38;;;;;;;;;;5025506;28;20341;-62
2023/06/13 12:21:22;;;;;;;51.80;49.20;;;;;;;;;;5035225;28;20040;-63
2023/06/13 12:23:48;;;;;;;59.40;56.40;;;;;;;;;;5033250;28;20060;-62
2023/06/13 12:26:14;;;;;;;52.13;49.47;;;;;;;;;;5036341;28;20067;-64
2023/06/13 12:28:41;;;;;;;64.82;61.45;;;;;;;;;;5038931;28;20547;-51
2023/06/13 12:31:09;;;;;;;72.20;68.57;;;;;;;;;;5032728;28;20033;-52
2023/06/13 12:33:35;;;;;;;61.10;58.00;;;;;;;;;;5032666;28;20039;-62
2023/06/13 12:36:04;;;;;;;61.08;57.97;;;;;;;;;;5033724;28;20029;-63
2023/06/13 12:38:31;;;;;;;54.40;51.63;;;;;;;;;;5030992;28;20033;-65
2023/06/13 12:40:57;;;;;;;41.88;39.70;;;;;;;;;;5035622;28;20029;-53
2023/06/13 12:43:29;;;;;;;58.88;55.90;;;;;;;;;;5033513;28;20040;-53
2023/06/13 12:45:56;;;;;;;36.65;34.65;;;;;;;;;;5033431;28;20091;-63
2023/06/13 12:48:22;;;;;;;54.70;51.95;;;;;;;;;;5033117;28;20037;-64
2023/06/13 12:50:48;;;;;;;34.17;32.38;;;;;;;;;;5033924;28;20120;-63
2023/06/13 12:53:19;;;;;;;35.75;33.85;;;;;;;;;;5033086;28;20076;-63
2023/06/13 12:55:47;;;;;;;37.58;35.58;;;;;;;;;;5035837;28;20033;-63
2023/06/13 12:58:32;;;;;;;43.30;41.10;;;;;;;;;;5032803;28;20108;-63
2023/06/13 13:01:06;;;;;;;43.33;41.10;;;;;;;;;;5031096;28;20051;-64
2023/06/13 13:03:33;;;;;;;53.45;50.72;;;;;;;;;;5033412;28;20414;-63
2023/06/13 13:06:00;;;;;;;41.63;39.50;;;;;;;;;;5030997;28;20087;-64
2023/06/13 13:08:26;;;;;;;34.75;32.95;;;;;;;;;;5035000;28;20029;-53
2023/06/13 13:10:52;;;;;;;32.45;30.73;;;;;;;;;;5032494;28;20037;-53
2023/06/13 13:13:20;;;;;;;35.90;34.08;;;;;;;;;;5037040;28;20382;-51
2023/06/13 13:15:46;;;;;;;32.17;30.38;;;;;;;;;;5032473;28;20348;-52
2023/06/13 13:18:12;;;;;;;43.45;41.25;;;;;;;;;;5035093;28;20099;-52
2023/06/13 13:20:38;;;;;;;37.50;35.50;;;;;;;;;;5033521;28;20114;-53
2023/06/13 13:23:04;;;;;;;29.60;28.05;;;;;;;;;;5032527;28;20040;-53
2023/06/13 13:25:30;;;;;;;39.33;36.80;;;;;;;;;;5033784;28;20030;-50
2023/06/13 13:27:56;;;;;;;31.30;29.60;;;;;;;;;;5031256;28;20136;-63
2023/06/13 13:30:21;;;;;;;35.88;34.03;;;;;;;;;;5033372;28;20479;-52
2023/06/13 13:32:50;;;;;;;26.65;25.25;;;;;;;;;;5031193;28;20544;-64
2023/06/13 13:35:15;;;;;;;27.50;26.00;;;;;;;;;;5032937;28;20037;-64
2023/06/13 13:37:41;;;;;;;31.15;29.55;;;;;;;;;;5032907;28;20033;-64
2023/06/13 13:40:07;;;;;;;27.60;26.13;;;;;;;;;;5031889;28;20446;-64
2023/06/13 13:42:36;;;;;;;26.25;24.85;;;;;;;;;;5033246;28;20414;-64
2023/06/13 13:45:06;;;;;;;28.00;26.50;;;;;;;;;;5031952;28;20029;-52
2023/06/13 13:47:32;;;;;;;27.38;25.77;;;;;;;;;;5031062;28;20768;-61
2023/06/13 13:49:57;;;;;;;26.38;24.98;;;;;;;;;;5032188;28;20037;-51
2023/06/13 13:52:23;;;;;;;28.20;26.70;;;;;;;;;;5033443;28;20045;-49
2023/06/13 13:54:50;;;;;;;28.08;26.50;;;;;;;;;;5033599;28;20037;-64
2023/06/13 13:57:15;;;;;;;31.40;26.35;;;;;;;;;;5033175;28;20079;-49
2023/06/13 13:59:41;;;;;;;35.58;33.65;;;;;;;;;;5032759;28;20033;-64
2023/06/13 14:02:06;;;;;;;35.15;33.33;;;;;;;;;;5029537;28;20096;-64
2023/06/13 14:04:32;;;;;;;30.42;28.83;;;;;;;;;;5034613;28;20048;-63
2023/06/13 14:06:58;;;;;;;25.55;24.10;;;;;;;;;;5034755;28;20045;-54
2023/06/13 14:09:23;;;;;;;30.90;29.20;;;;;;;;;;5032733;28;20041;-49
2023/06/13 14:11:48;;;;;;;28.75;27.17;;;;;;;;;;5033694;28;20056;-62
2023/06/13 14:14:14;;;;;;;27.38;25.88;;;;;;;;;;5034162;28;20474;-49
2023/06/13 14:16:39;;;;;;;29.27;27.75;;;;;;;;;;5033471;28;20772;-62